Time;durP1;ratioP1;P1;durP2;ratioP2;P2;SDS_P1;SDS_P2;PMS_P1;PMS_P2;Temp;Humidity;BMP_temperature;BMP_pressure;BME280_temperature;BME280_humidity;BME280_pressure;Samples;Min_cycle;Max_cycle;Signal;HPM_P1;HPM_P2
2023/04/12 00:02:05;;;;;;;14.27;3.03;;;8.30;99.90;;;;;;5001890;28;20064;-60
2023/04/12 00:04:33;;;;;;;9.05;2.72;;;8.40;99.90;;;;;;4990495;28;20096;-61
2023/04/12 00:06:59;;;;;;;12.20;2.65;;;8.40;99.90;;;;;;5003819;28;20225;-61
2023/04/12 00:09:29;;;;;;;10.32;2.10;;;8.40;99.90;;;;;;5008278;28;20038;-60
2023/04/12 00:11:58;;;;;;;8.07;2.30;;;8.40;99.90;;;;;;5005906;28;20484;-61
2023/04/12 00:14:25;;;;;;;13.48;3.00;;;8.50;99.90;;;;;;5007537;28;20397;-60
2023/04/12 00:16:51;;;;;;;9.57;2.40;;;8.50;99.90;;;;;;5006911;28;20073;-60
2023/04/12 00:19:17;;;;;;;8.07;3.20;;;8.50;99.90;;;;;;5007362;28;20034;-60
2023/04/12 00:21:43;;;;;;;10.23;3.33;;;8.60;99.90;;;;;;5007282;28;20037;-60
2023/04/12 00:24:09;;;;;;;15.95;3.10;;;8.60;99.90;;;;;;5005604;28;20092;-61
2023/04/12 00:26:35;;;;;;;6.57;3.03;;;8.60;99.90;;;;;;5008180;28;20073;-60
2023/04/12 00:29:01;;;;;;;8.23;2.20;;;8.70;99.90;;;;;;5006553;28;20068;-60
2023/04/12 00:31:27;;;;;;;10.77;3.08;;;8.70;99.90;;;;;;5000285;28;20503;-61
2023/04/12 00:33:53;;;;;;;6.32;2.45;;;8.70;99.90;;;;;;5004625;28;20033;-60
2023/04/12 00:36:19;;;;;;;13.52;4.28;;;8.70;99.90;;;;;;4999538;28;20115;-60
2023/04/12 00:38:45;;;;;;;8.68;2.70;;;8.60;99.90;;;;;;5004460;28;20046;-60
2023/04/12 00:41:11;;;;;;;8.32;2.72;;;8.70;99.90;;;;;;5006783;28;20038;-61
2023/04/12 00:43:40;;;;;;;10.50;3.55;;;8.70;99.90;;;;;;5000219;28;20069;-61
2023/04/12 00:46:11;;;;;;;13.60;3.20;;;8.60;99.90;;;;;;5002595;28;20393;-60
2023/04/12 00:48:37;;;;;;;7.88;2.60;;;8.60;99.90;;;;;;4995742;28;20539;-61
2023/04/12 00:51:05;;;;;;;9.15;2.75;;;8.60;99.90;;;;;;5002944;28;20029;-59
2023/04/12 00:53:32;;;;;;;13.02;3.10;;;8.60;99.90;;;;;;5001179;28;20034;-61
2023/04/12 00:55:58;;;;;;;6.90;2.63;;;8.60;99.90;;;;;;5004284;28;20034;-59
2023/04/12 00:58:24;;;;;;;7.85;2.70;;;8.60;99.90;;;;;;5003601;28;20706;-60
2023/04/12 01:00:51;;;;;;;8.05;3.00;;;8.60;99.90;;;;;;5003481;28;20065;-60
2023/04/12 01:03:22;;;;;;;7.70;2.35;;;8.60;99.90;;;;;;5006194;28;20042;-61
2023/04/12 01:05:57;;;;;;;8.57;3.25;;;8.60;99.90;;;;;;5004534;28;20048;-60
2023/04/12 01:08:49;;;;;;;7.32;2.67;;;8.60;99.90;;;;;;4986811;28;20153;-61
2023/04/12 01:11:30;;;;;;;8.85;2.88;;;8.60;99.90;;;;;;4991131;28;20050;-60
2023/04/12 01:14:28;;;;;;;10.80;2.97;;;8.60;99.90;;;;;;4998458;28;20042;-61
2023/04/12 01:16:58;;;;;;;14.07;3.95;;;8.60;99.90;;;;;;4998469;28;20046;-59
2023/04/12 01:19:36;;;;;;;10.48;2.75;;;8.60;99.90;;;;;;5000115;28;20536;-61
2023/04/12 01:22:09;;;;;;;13.18;2.63;;;8.60;99.90;;;;;;5007293;28;20076;-61
2023/04/12 01:24:44;;;;;;;8.80;2.75;;;8.60;99.90;;;;;;5001425;28;20417;-60
2023/04/12 01:27:12;;;;;;;13.18;3.22;;;8.60;99.90;;;;;;5004474;28;20069;-60
2023/04/12 01:29:40;;;;;;;10.38;2.70;;;8.60;99.90;;;;;;4989463;28;20054;-60
2023/04/12 01:32:12;;;;;;;9.20;2.85;;;8.60;99.90;;;;;;5006413;28;20041;-61
2023/04/12 01:34:39;;;;;;;10.52;2.78;;;8.60;99.90;;;;;;5002306;28;20625;-60
2023/04/12 01:37:06;;;;;;;13.65;2.80;;;8.60;99.90;;;;;;5007248;28;20544;-61
2023/04/12 01:39:33;;;;;;;7.95;2.53;;;8.60;99.90;;;;;;4999952;28;20042;-60
2023/04/12 01:42:02;;;;;;;10.48;2.63;;;8.60;99.90;;;;;;5004121;28;20133;-61
2023/04/12 01:44:27;;;;;;;8.85;2.65;;;8.60;99.90;;;;;;5005466;28;20038;-60
2023/04/12 01:46:53;;;;;;;12.82;2.65;;;8.60;99.90;;;;;;5003974;28;20488;-61
2023/04/12 01:49:21;;;;;;;6.68;2.58;;;8.60;99.90;;;;;;4972597;28;20472;-58
2023/04/12 01:52:10;;;;;;;7.20;2.55;;;8.60;99.90;;;;;;4989265;28;20073;-61
2023/04/12 01:54:41;;;;;;;9.13;3.30;;;8.60;99.90;;;;;;5009178;28;20128;-60
2023/04/12 01:57:07;;;;;;;14.27;4.03;;;8.50;99.90;;;;;;5005144;28;20133;-61
2023/04/12 01:59:42;;;;;;;8.90;2.92;;;8.50;99.90;;;;;;4989768;28;20125;-60
2023/04/12 02:02:09;;;;;;;9.82;3.30;;;8.50;99.90;;;;;;5008027;28;20042;-59
2023/04/12 02:04:36;;;;;;;11.85;2.83;;;8.50;99.90;;;;;;4995666;28;20069;-60
2023/04/12 02:07:03;;;;;;;11.18;2.83;;;8.50;99.90;;;;;;5008521;28;20092;-59
2023/04/12 02:09:29;;;;;;;7.18;2.75;;;8.50;99.90;;;;;;5005430;28;20046;-60
2023/04/12 02:11:55;;;;;;;7.75;2.30;;;8.50;99.90;;;;;;4992247;28;20108;-60
2023/04/12 02:14:21;;;;;;;6.35;2.10;;;8.50;99.90;;;;;;4989721;28;20529;-61
2023/04/12 02:16:49;;;;;;;7.70;1.90;;;8.50;99.90;;;;;;5004384;28;20034;-59
2023/04/12 02:19:15;;;;;;;9.77;2.38;;;8.50;99.90;;;;;;5008632;28;20042;-59
2023/04/12 02:21:42;;;;;;;5.72;2.35;;;8.50;99.90;;;;;;5005560;28;20025;-61
2023/04/12 02:24:08;;;;;;;13.27;3.03;;;8.50;99.90;;;;;;4997875;28;20042;-60
2023/04/12 02:26:35;;;;;;;9.95;3.35;;;8.50;99.90;;;;;;5003824;28;20056;-61
2023/04/12 02:29:02;;;;;;;8.40;2.33;;;8.50;99.90;;;;;;5009061;28;20045;-60
2023/04/12 02:31:30;;;;;;;10.68;2.88;;;8.50;99.90;;;;;;5005304;28;20050;-60
2023/04/12 02:33:56;;;;;;;9.40;2.20;;;8.50;99.90;;;;;;4991728;28;20057;-59
2023/04/12 02:36:22;;;;;;;7.03;2.28;;;8.50;99.90;;;;;;4989103;28;20377;-60
2023/04/12 02:38:50;;;;;;;8.60;2.58;;;8.60;99.90;;;;;;5011559;28;20050;-61
2023/04/12 02:41:20;;;;;;;7.13;2.28;;;8.50;99.90;;;;;;4986001;28;20078;-59
2023/04/12 02:43:46;;;;;;;8.95;2.40;;;8.50;99.90;;;;;;5006281;28;20053;-60
2023/04/12 02:46:18;;;;;;;7.53;2.28;;;8.60;99.90;;;;;;5009135;28;20500;-61
2023/04/12 02:48:44;;;;;;;10.02;2.97;;;8.60;99.90;;;;;;5008600;28;20088;-60
2023/04/12 02:51:10;;;;;;;8.43;2.60;;;8.50;99.90;;;;;;4986234;28;20125;-59
2023/04/12 02:53:36;;;;;;;6.70;3.25;;;8.50;99.90;;;;;;5007900;28;20045;-59
2023/04/12 02:56:09;;;;;;;7.18;2.70;;;8.60;99.90;;;;;;5006254;28;20038;-58
2023/04/12 02:58:35;;;;;;;7.15;2.40;;;8.60;99.90;;;;;;5008509;28;20125;-58
2023/04/12 03:01:06;;;;;;;9.30;2.63;;;8.60;99.90;;;;;;4991888;28;20053;-58
2023/04/12 03:03:33;;;;;;;5.60;2.63;;;8.60;99.90;;;;;;5009586;28;20174;-59
2023/04/12 03:05:58;;;;;;;5.10;2.30;;;8.60;99.90;;;;;;5009414;28;20042;-58
2023/04/12 03:08:25;;;;;;;5.57;2.08;;;8.60;99.90;;;;;;5009203;28;20079;-58
2023/04/12 03:10:50;;;;;;;10.40;3.45;;;8.50;99.90;;;;;;5005034;28;20041;-58
2023/04/12 03:13:16;;;;;;;11.98;2.45;;;8.60;99.90;;;;;;5001277;28;20031;-59
2023/04/12 03:15:45;;;;;;;4.50;2.17;;;8.60;99.90;;;;;;5007012;28;20176;-59
2023/04/12 03:18:10;;;;;;;6.43;2.55;;;8.60;99.90;;;;;;5011827;28;20064;-59
2023/04/12 03:20:38;;;;;;;8.20;2.60;;;8.60;99.90;;;;;;5007795;28;20042;-59
2023/04/12 03:23:04;;;;;;;5.53;2.13;;;8.60;99.90;;;;;;5009359;28;20042;-59
2023/04/12 03:25:30;;;;;;;6.38;2.10;;;8.50;99.90;;;;;;5004854;28;20030;-59
2023/04/12 03:27:55;;;;;;;7.47;2.33;;;8.50;99.90;;;;;;4998122;28;20571;-59
2023/04/12 03:30:21;;;;;;;11.95;2.92;;;8.50;99.90;;;;;;4998854;28;20030;-59
2023/04/12 03:32:47;;;;;;;5.35;2.15;;;8.50;99.90;;;;;;5003656;28;20037;-58
2023/04/12 03:35:13;;;;;;;7.40;2.60;;;8.50;99.90;;;;;;5005958;28;21573;-59
2023/04/12 03:37:42;;;;;;;9.25;2.75;;;8.50;99.90;;;;;;5001839;28;20038;-59
2023/04/12 03:40:11;;;;;;;4.90;1.95;;;8.50;99.90;;;;;;5021498;28;20041;-58
2023/04/12 03:42:37;;;;;;;6.32;2.70;;;8.50;99.90;;;;;;5005662;28;20045;-59
2023/04/12 03:45:04;;;;;;;6.07;2.55;;;8.50;99.90;;;;;;5006658;28;20034;-59
2023/04/12 03:47:30;;;;;;;8.43;3.45;;;8.50;99.90;;;;;;5006462;28;20397;-59
2023/04/12 03:50:00;;;;;;;10.35;2.65;;;8.50;99.90;;;;;;5002848;28;20046;-58
2023/04/12 03:52:26;;;;;;;8.70;3.08;;;8.50;99.90;;;;;;5002159;28;20042;-57
2023/04/12 03:54:52;;;;;;;10.95;3.10;;;8.50;99.90;;;;;;5007565;28;20038;-58
2023/04/12 03:57:17;;;;;;;13.60;3.05;;;8.50;99.90;;;;;;5006802;28;20397;-58
2023/04/12 03:59:43;;;;;;;8.23;3.08;;;8.40;99.90;;;;;;5000533;28;20038;-57
2023/04/12 04:02:09;;;;;;;5.82;2.70;;;8.40;99.90;;;;;;5007028;28;20050;-58
2023/04/12 04:04:36;;;;;;;8.02;2.47;;;8.40;99.90;;;;;;5006824;28;20041;-58
2023/04/12 04:07:02;;;;;;;6.22;3.00;;;8.40;99.90;;;;;;5003899;28;20053;-58
2023/04/12 04:09:28;;;;;;;9.40;3.60;;;8.40;99.90;;;;;;5005030;28;20041;-58
2023/04/12 04:11:54;;;;;;;6.60;2.53;;;8.40;99.90;;;;;;5006337;28;20044;-58
2023/04/12 04:14:20;;;;;;;9.30;2.22;;;8.40;99.90;;;;;;5006483;28;20042;-58
2023/04/12 04:16:46;;;;;;;6.93;2.65;;;8.40;99.90;;;;;;4993522;28;20045;-58
2023/04/12 04:19:11;;;;;;;8.43;2.50;;;8.40;99.90;;;;;;4989119;28;20033;-57
2023/04/12 04:21:39;;;;;;;5.57;2.70;;;8.40;99.90;;;;;;5011191;28;20034;-56
2023/04/12 04:24:05;;;;;;;9.10;2.47;;;8.40;99.90;;;;;;5005299;28;20054;-58
2023/04/12 04:26:32;;;;;;;10.95;3.20;;;8.40;99.90;;;;;;4986709;28;20126;-58
2023/04/12 04:29:02;;;;;;;8.40;2.13;;;8.30;99.90;;;;;;4986169;28;20087;-58
2023/04/12 04:31:35;;;;;;;6.70;2.58;;;8.30;99.90;;;;;;5008685;28;20042;-58
2023/04/12 04:34:04;;;;;;;6.32;2.85;;;8.30;99.90;;;;;;4997508;28;20045;-57
2023/04/12 04:36:34;;;;;;;8.93;2.85;;;8.30;99.90;;;;;;4988281;28;20038;-58
2023/04/12 04:39:00;;;;;;;7.32;2.60;;;8.30;99.90;;;;;;4987428;28;20038;-58
2023/04/12 04:41:26;;;;;;;7.35;2.28;;;8.30;99.90;;;;;;5007398;28;20111;-58
2023/04/12 04:43:53;;;;;;;7.80;2.33;;;8.30;99.90;;;;;;5006024;28;20042;-58
2023/04/12 04:46:22;;;;;;;7.10;2.47;;;8.30;99.90;;;;;;5005903;28;20520;-58
2023/04/12 04:48:50;;;;;;;10.98;2.75;;;8.20;99.90;;;;;;5006007;28;20073;-58
2023/04/12 04:51:16;;;;;;;9.15;2.88;;;8.30;99.90;;;;;;5000498;28;20045;-58
2023/04/12 04:53:43;;;;;;;7.32;2.60;;;8.20;99.90;;;;;;5007461;28;20433;-58
2023/04/12 04:56:09;;;;;;;7.45;2.60;;;8.20;99.90;;;;;;5005033;28;20041;-58
2023/04/12 04:58:38;;;;;;;10.50;2.53;;;8.20;99.90;;;;;;5005030;28;20120;-58
2023/04/12 05:01:04;;;;;;;8.23;2.83;;;8.20;99.90;;;;;;4997037;28;20054;-58
2023/04/12 05:03:32;;;;;;;7.43;2.75;;;8.20;99.90;;;;;;5005414;28;20073;-58
2023/04/12 05:06:00;;;;;;;8.07;2.65;;;8.20;99.90;;;;;;5007443;28;20073;-58
2023/04/12 05:08:27;;;;;;;6.85;3.15;;;8.20;99.90;;;;;;4986242;28;20038;-57
2023/04/12 05:10:54;;;;;;;8.18;3.35;;;8.20;99.90;;;;;;5007497;28;20046;-59
2023/04/12 05:13:23;;;;;;;7.25;3.00;;;8.10;99.90;;;;;;5008067;28;20088;-58
2023/04/12 05:15:49;;;;;;;8.00;3.17;;;8.20;99.90;;;;;;5004330;28;20101;-59
2023/04/12 05:18:16;;;;;;;12.25;3.58;;;8.20;99.90;;;;;;4996508;28;20049;-59
2023/04/12 05:20:44;;;;;;;13.43;4.25;;;8.10;99.90;;;;;;5002585;28;20409;-57
2023/04/12 05:23:10;;;;;;;9.77;4.40;;;8.10;99.90;;;;;;5007824;28;20041;-58
2023/04/12 05:25:36;;;;;;;8.02;4.35;;;8.10;99.90;;;;;;4985026;28;20072;-57
2023/04/12 05:28:02;;;;;;;13.55;5.25;;;8.20;99.90;;;;;;5009972;28;20471;-58
2023/04/12 05:30:28;;;;;;;10.95;5.00;;;8.10;99.90;;;;;;5008771;28;20046;-59
2023/04/12 05:32:54;;;;;;;10.35;5.32;;;8.10;99.90;;;;;;5005143;28;20034;-56
2023/04/12 05:35:20;;;;;;;9.77;5.50;;;8.10;99.90;;;;;;5010398;28;20070;-59
2023/04/12 05:37:45;;;;;;;9.95;5.82;;;8.10;99.90;;;;;;5010550;28;20062;-58
2023/04/12 05:40:11;;;;;;;9.45;6.32;;;8.10;99.90;;;;;;5007715;28;20076;-58
2023/04/12 05:42:40;;;;;;;10.98;7.22;;;8.10;99.90;;;;;;5013031;28;20149;-59
2023/04/12 05:45:06;;;;;;;10.75;7.38;;;8.10;99.90;;;;;;5007204;28;20471;-58
2023/04/12 05:47:32;;;;;;;16.85;9.70;;;8.10;99.90;;;;;;5011785;28;20053;-58
2023/04/12 05:49:57;;;;;;;13.73;9.30;;;8.10;99.90;;;;;;5010330;28;20508;-59
2023/04/12 05:52:23;;;;;;;15.43;8.45;;;8.10;99.90;;;;;;5007468;28;20046;-58
2023/04/12 05:54:51;;;;;;;14.57;8.88;;;8.10;99.90;;;;;;5008453;28;20049;-58
2023/04/12 05:57:17;;;;;;;12.35;9.60;;;8.10;99.90;;;;;;5009798;28;20052;-59
2023/04/12 05:59:42;;;;;;;16.63;10.05;;;8.10;99.90;;;;;;5011357;28;20069;-58
2023/04/12 06:02:09;;;;;;;11.27;9.68;;;8.10;99.90;;;;;;5006646;28;20564;-58
2023/04/12 06:04:37;;;;;;;14.70;11.32;;;8.10;99.90;;;;;;5007941;28;20493;-59
2023/04/12 06:07:04;;;;;;;16.13;10.25;;;8.10;99.90;;;;;;5009046;28;20051;-57
2023/04/12 06:09:31;;;;;;;13.82;10.65;;;8.10;99.90;;;;;;5003833;28;20464;-59
2023/04/12 06:11:57;;;;;;;16.30;10.57;;;8.10;99.90;;;;;;5002054;28;20046;-58
2023/04/12 06:14:22;;;;;;;18.63;11.68;;;8.20;99.90;;;;;;5006253;28;20030;-58
2023/04/12 06:16:48;;;;;;;15.73;12.73;;;8.20;99.90;;;;;;5009159;28;20034;-59
2023/04/12 06:19:14;;;;;;;17.83;11.57;;;8.20;99.90;;;;;;4996941;28;20086;-58
2023/04/12 06:21:40;;;;;;;14.60;11.50;;;8.10;99.90;;;;;;5004919;28;20033;-57
2023/04/12 06:24:06;;;;;;;16.05;10.70;;;8.20;99.90;;;;;;5007571;28;20603;-58
2023/04/12 06:26:32;;;;;;;16.55;10.85;;;8.20;99.90;;;;;;5018007;28;20073;-58
2023/04/12 06:29:01;;;;;;;15.90;11.32;;;8.20;99.90;;;;;;5006148;28;20091;-57
2023/04/12 06:31:26;;;;;;;13.18;10.35;;;8.20;99.90;;;;;;5003725;28;20184;-58
2023/04/12 06:33:52;;;;;;;15.00;10.63;;;8.20;99.90;;;;;;5002896;28;20148;-56
2023/04/12 06:36:18;;;;;;;13.65;8.90;;;8.20;99.90;;;;;;5000073;28;20044;-57
2023/04/12 06:38:43;;;;;;;13.77;9.43;;;8.20;99.90;;;;;;5001912;28;20042;-56
2023/04/12 06:41:10;;;;;;;11.55;9.07;;;8.20;99.90;;;;;;4992561;28;20538;-56
2023/04/12 06:43:39;;;;;;;12.07;9.18;;;8.20;99.90;;;;;;5003923;28;20046;-56
2023/04/12 06:46:05;;;;;;;14.02;9.77;;;8.20;99.90;;;;;;5007534;28;20042;-56
2023/04/12 06:48:30;;;;;;;11.18;9.55;;;8.20;99.90;;;;;;5007949;28;20144;-56
2023/04/12 06:50:56;;;;;;;12.10;8.82;;;8.20;99.90;;;;;;5007708;28;20062;-56
2023/04/12 06:53:22;;;;;;;12.43;8.73;;;8.20;99.90;;;;;;5001966;28;20038;-55
2023/04/12 06:55:47;;;;;;;10.50;8.15;;;8.20;99.90;;;;;;5006061;28;20035;-56
2023/04/12 06:58:13;;;;;;;12.18;8.20;;;8.20;99.90;;;;;;5007020;28;20820;-56
2023/04/12 07:00:39;;;;;;;11.80;8.85;;;8.20;99.90;;;;;;5004274;28;20050;-54
2023/04/12 07:03:05;;;;;;;13.15;8.40;;;8.20;99.90;;;;;;5007279;28;20049;-57
2023/04/12 07:05:30;;;;;;;13.85;8.07;;;8.20;99.90;;;;;;4983103;28;20050;-56
2023/04/12 07:07:56;;;;;;;10.90;7.78;;;8.20;99.90;;;;;;5007132;28;20038;-56
2023/04/12 07:10:22;;;;;;;11.65;8.20;;;8.20;99.90;;;;;;5007541;28;20042;-54
2023/04/12 07:12:48;;;;;;;12.65;8.60;;;8.20;99.90;;;;;;5005322;28;20658;-56
2023/04/12 07:15:14;;;;;;;9.82;7.65;;;8.20;99.90;;;;;;5001193;28;20474;-56
2023/04/12 07:17:40;;;;;;;9.75;7.90;;;8.20;99.90;;;;;;4989199;28;20046;-56
2023/04/12 07:20:06;;;;;;;10.82;8.10;;;8.20;99.90;;;;;;5004432;28;20052;-56
2023/04/12 07:22:31;;;;;;;11.05;8.23;;;8.30;99.90;;;;;;5019064;28;20078;-57
2023/04/12 07:24:57;;;;;;;12.43;8.38;;;8.20;99.90;;;;;;5005123;28;20691;-56
2023/04/12 07:27:23;;;;;;;10.82;8.15;;;8.30;99.90;;;;;;5005984;28;20046;-55
2023/04/12 07:29:52;;;;;;;12.60;7.63;;;8.30;99.90;;;;;;5001850;28;20042;-54
2023/04/12 07:32:17;;;;;;;9.68;6.70;;;8.30;99.90;;;;;;5005109;28;20505;-56
2023/04/12 07:34:43;;;;;;;12.07;8.77;;;8.30;99.90;;;;;;5002978;28;20085;-56
2023/04/12 07:37:09;;;;;;;11.70;7.88;;;8.30;99.90;;;;;;5001511;28;20054;-59
2023/04/12 07:39:36;;;;;;;8.85;7.20;;;8.30;99.90;;;;;;5002440;28;20087;-58
2023/04/12 07:42:02;;;;;;;10.13;6.70;;;8.30;99.90;;;;;;5001568;28;20041;-57
2023/04/12 07:44:27;;;;;;;9.20;6.28;;;8.40;99.90;;;;;;5006616;28;20686;-57
2023/04/12 07:46:53;;;;;;;8.98;6.25;;;8.40;99.90;;;;;;4987818;28;20832;-57
2023/04/12 07:49:19;;;;;;;9.05;6.05;;;8.40;99.90;;;;;;5001600;28;20050;-57
2023/04/12 07:51:44;;;;;;;10.18;6.28;;;8.40;99.90;;;;;;5007609;28;20118;-59
2023/04/12 07:54:12;;;;;;;10.40;6.55;;;8.40;99.90;;;;;;5009418;28;20038;-58
2023/04/12 07:56:40;;;;;;;10.13;6.28;;;8.50;99.90;;;;;;5006246;28;20497;-57
2023/04/12 07:59:06;;;;;;;9.43;6.32;;;8.50;99.90;;;;;;5005926;28;20069;-58
2023/04/12 08:01:32;;;;;;;8.60;6.07;;;8.50;99.90;;;;;;5002608;28;20081;-58
2023/04/12 08:03:57;;;;;;;7.72;5.60;;;8.50;99.90;;;;;;5001662;28;20038;-58
2023/04/12 08:06:23;;;;;;;9.73;5.80;;;8.50;99.90;;;;;;5006478;28;20046;-57
2023/04/12 08:08:49;;;;;;;10.00;5.53;;;8.50;99.90;;;;;;5001958;28;20050;-58
2023/04/12 08:11:15;;;;;;;6.55;5.00;;;8.60;99.90;;;;;;5006096;28;20095;-58
2023/04/12 08:13:40;;;;;;;6.60;4.90;;;8.60;99.90;;;;;;5007179;28;20080;-59
2023/04/12 08:16:08;;;;;;;8.15;4.88;;;8.60;99.90;;;;;;5008113;28;20827;-59
2023/04/12 08:18:33;;;;;;;7.53;4.85;;;8.60;99.90;;;;;;5001086;28;20534;-59
2023/04/12 08:20:59;;;;;;;4.85;4.13;;;8.60;99.90;;;;;;5000469;28;20034;-59
2023/04/12 08:23:26;;;;;;;6.95;4.30;;;8.70;99.90;;;;;;4995425;28;20100;-59
2023/04/12 08:26:01;;;;;;;6.60;4.30;;;8.70;99.90;;;;;;5011954;28;20986;-59
2023/04/12 08:28:27;;;;;;;5.50;3.88;;;8.70;99.90;;;;;;5012380;28;20571;-58
2023/04/12 08:30:53;;;;;;;6.72;3.80;;;8.70;99.90;;;;;;5003233;28;20072;-59
2023/04/12 08:33:19;;;;;;;5.35;3.83;;;8.70;99.90;;;;;;5005712;28;20048;-59
2023/04/12 08:35:45;;;;;;;6.78;3.97;;;8.70;99.90;;;;;;4999356;28;20037;-58
2023/04/12 08:38:11;;;;;;;6.50;4.18;;;8.70;99.90;;;;;;5002510;28;20555;-57
2023/04/12 08:40:38;;;;;;;7.70;4.20;;;8.70;99.90;;;;;;5003725;28;20049;-57
2023/04/12 08:43:07;;;;;;;7.15;4.03;;;8.80;99.90;;;;;;5001074;28;20053;-57
2023/04/12 08:45:35;;;;;;;6.50;3.35;;;8.90;99.90;;;;;;5000503;28;20485;-58
2023/04/12 08:48:02;;;;;;;7.13;3.33;;;8.90;99.90;;;;;;5003830;28;20049;-58
2023/04/12 08:50:29;;;;;;;8.02;2.65;;;9.00;99.90;;;;;;5003838;28;20049;-57
2023/04/12 08:52:56;;;;;;;6.95;3.05;;;9.10;99.90;;;;;;5000418;28;20068;-58
2023/04/12 08:55:22;;;;;;;7.93;2.97;;;9.20;99.90;;;;;;5001682;28;20048;-58
2023/04/12 08:57:49;;;;;;;5.72;2.78;;;9.30;99.90;;;;;;5005986;28;20381;-58
2023/04/12 09:00:18;;;;;;;5.32;2.95;;;9.50;99.90;;;;;;5008434;28;20076;-60
2023/04/12 09:02:45;;;;;;;5.93;3.17;;;9.70;99.90;;;;;;5000709;28;20034;-56
2023/04/12 09:05:13;;;;;;;5.82;3.30;;;9.90;99.90;;;;;;5006578;28;20124;-58
2023/04/12 09:07:39;;;;;;;6.47;3.35;;;10.00;99.90;;;;;;5003850;28;20141;-56
2023/04/12 09:10:05;;;;;;;7.93;3.42;;;10.10;99.90;;;;;;5007135;28;20088;-58
2023/04/12 09:12:31;;;;;;;5.15;3.50;;;10.20;99.90;;;;;;5006000;28;20038;-60
2023/04/12 09:15:07;;;;;;;5.70;3.40;;;10.20;99.90;;;;;;5007848;28;20547;-58
2023/04/12 09:17:37;;;;;;;5.22;3.30;;;10.30;99.90;;;;;;4994158;28;20128;-57
2023/04/12 09:20:22;;;;;;;9.30;3.25;;;10.30;99.90;;;;;;4984323;28;20070;-56
2023/04/12 09:22:48;;;;;;;8.93;3.78;;;10.40;99.90;;;;;;4999805;28;20097;-60
2023/04/12 09:25:15;;;;;;;13.85;4.07;;;10.60;99.90;;;;;;4997814;28;20152;-57
2023/04/12 09:27:47;;;;;;;7.47;3.30;;;10.80;99.90;;;;;;5002775;28;20743;-56
2023/04/12 09:30:14;;;;;;;9.50;3.60;;;10.80;99.90;;;;;;4996643;28;20176;-58
2023/04/12 09:32:40;;;;;;;9.57;3.13;;;11.00;99.90;;;;;;5005517;28;20180;-64
2023/04/12 09:35:06;;;;;;;9.70;3.20;;;11.20;99.90;;;;;;5017340;28;20722;-60
2023/04/12 09:37:32;;;;;;;8.48;2.65;;;11.40;99.90;;;;;;4997876;28;20092;-59
2023/04/12 09:40:05;;;;;;;6.35;2.30;;;11.70;99.90;;;;;;5003922;28;20029;-56
2023/04/12 09:42:35;;;;;;;10.48;3.40;;;11.80;99.90;;;;;;5006712;28;20132;-58
2023/04/12 09:45:23;;;;;;;9.48;2.45;;;11.90;99.90;;;;;;5003125;28;20384;-57
2023/04/12 09:47:49;;;;;;;10.70;3.40;;;11.90;99.90;;;;;;5002286;28;20038;-57
2023/04/12 09:50:21;;;;;;;12.73;3.30;;;12.00;99.90;;;;;;5006631;28;20042;-56
2023/04/12 09:52:47;;;;;;;12.07;3.25;;;12.00;99.90;;;;;;5006437;28;20042;-57
2023/04/12 09:55:14;;;;;;;11.02;2.97;;;12.00;99.90;;;;;;5013468;28;20542;-56
2023/04/12 09:57:42;;;;;;;13.13;3.55;;;12.00;99.90;;;;;;5004957;28;20034;-59
2023/04/12 10:00:18;;;;;;;10.23;2.53;;;12.00;99.90;;;;;;5003662;28;20054;-57
2023/04/12 10:02:53;;;;;;;11.70;2.58;;;12.00;99.90;;;;;;4998050;28;20038;-59
2023/04/12 10:05:21;;;;;;;12.23;2.70;;;11.90;99.90;;;;;;5006824;28;20265;-58
2023/04/12 10:07:47;;;;;;;13.35;3.00;;;11.90;99.90;;;;;;5006243;28;20050;-60
2023/04/12 10:10:15;;;;;;;11.90;2.83;;;11.80;99.90;;;;;;5007421;28;20040;-57
2023/04/12 10:12:42;;;;;;;15.52;3.42;;;11.80;99.90;;;;;;5009404;28;20038;-57
2023/04/12 10:15:14;;;;;;;9.93;2.55;;;11.90;99.90;;;;;;5010164;28;20033;-56
2023/04/12 10:17:46;;;;;;;12.15;2.90;;;11.90;99.90;;;;;;5020267;28;20043;-57
2023/04/12 10:20:14;;;;;;;13.27;2.65;;;12.00;99.90;;;;;;5026475;28;20869;-61
2023/04/12 10:22:48;;;;;;;13.32;2.95;;;12.10;99.90;;;;;;5005843;28;20121;-55
2023/04/12 10:25:17;;;;;;;18.60;3.05;;;12.30;99.90;;;;;;5002699;28;20038;-57
2023/04/12 10:27:44;;;;;;;12.90;3.42;;;12.60;99.90;;;;;;5007240;28;20041;-57
2023/04/12 10:30:23;;;;;;;12.95;2.53;;;12.60;99.90;;;;;;5008362;28;20030;-56
2023/04/12 10:33:01;;;;;;;15.23;2.90;;;12.60;99.90;;;;;;4990212;28;20046;-57
2023/04/12 10:35:47;;;;;;;12.13;2.90;;;12.60;99.90;;;;;;5008047;28;20048;-57
2023/04/12 10:38:14;;;;;;;13.88;3.10;;;12.60;99.90;;;;;;5003317;28;20048;-59
2023/04/12 10:41:06;;;;;;;15.05;2.78;;;12.50;99.90;;;;;;5007278;28;20111;-57
2023/04/12 10:43:32;;;;;;;18.52;3.53;;;12.30;99.90;;;;;;4999029;28;20094;-56
2023/04/12 10:46:03;;;;;;;16.55;3.22;;;12.20;99.90;;;;;;5010185;28;20072;-56
2023/04/12 10:48:33;;;;;;;10.60;2.50;;;12.40;99.90;;;;;;5003147;28;20405;-57
2023/04/12 10:51:16;;;;;;;11.13;2.40;;;12.50;99.90;;;;;;5006062;28;20627;-57
2023/04/12 10:53:45;;;;;;;12.35;2.53;;;12.60;99.90;;;;;;5001235;28;20061;-56
2023/04/12 10:56:30;;;;;;;11.90;3.15;;;12.60;99.90;;;;;;5007891;28;20037;-59
2023/04/12 10:59:01;;;;;;;11.07;3.05;;;12.60;99.90;;;;;;5009541;28;20057;-57
2023/04/12 11:01:27;;;;;;;12.40;2.50;;;12.50;99.90;;;;;;5003153;28;20133;-58
2023/04/12 11:04:12;;;;;;;10.35;2.25;;;12.40;99.90;;;;;;5010187;28;20046;-54
2023/04/12 11:06:58;;;;;;;23.30;7.13;;;12.30;99.90;;;;;;5006418;28;20065;-55
2023/04/12 11:09:33;;;;;;;20.20;4.57;;;12.00;99.90;;;;;;5003846;28;20192;-56
2023/04/12 11:12:04;;;;;;;21.88;3.03;;;11.90;99.90;;;;;;5000984;28;20100;-59
2023/04/12 11:14:43;;;;;;;9.95;2.30;;;11.90;99.90;;;;;;4999037;28;20813;-56
2023/04/12 11:17:12;;;;;;;10.05;2.50;;;11.80;99.90;;;;;;5003382;28;20060;-57
2023/04/12 11:19:41;;;;;;;14.02;3.20;;;11.70;99.90;;;;;;5001447;28;20795;-57
2023/04/12 11:22:09;;;;;;;16.88;3.13;;;11.70;99.90;;;;;;5007338;28;20037;-61
2023/04/12 11:24:56;;;;;;;11.65;2.78;;;11.80;99.90;;;;;;4998907;28;20667;-58
2023/04/12 11:27:23;;;;;;;14.00;2.63;;;11.80;99.90;;;;;;5003574;28;20561;-57
2023/04/12 11:29:53;;;;;;;9.65;2.58;;;11.80;99.90;;;;;;4985324;28;20038;-59
2023/04/12 11:32:20;;;;;;;13.55;2.85;;;11.90;99.90;;;;;;4993339;28;20385;-61
2023/04/12 11:34:46;;;;;;;11.35;2.38;;;11.80;99.90;;;;;;4999703;28;20030;-58
2023/04/12 11:37:12;;;;;;;13.88;3.20;;;11.80;99.90;;;;;;5006006;28;20072;-60
2023/04/12 11:39:44;;;;;;;13.68;3.25;;;12.00;99.90;;;;;;5009385;28;20057;-59
2023/04/12 11:42:22;;;;;;;20.02;4.00;;;12.10;99.90;;;;;;5004362;28;20042;-55
2023/04/12 11:44:49;;;;;;;12.60;2.63;;;12.10;99.90;;;;;;5002099;28;20042;-57
2023/04/12 11:47:22;;;;;;;14.77;3.22;;;12.30;99.90;;;;;;4996071;28;20953;-56
2023/04/12 11:49:54;;;;;;;17.63;3.95;;;12.20;99.90;;;;;;5006404;28;20034;-57
2023/04/12 11:52:29;;;;;;;17.55;4.15;;;12.00;99.90;;;;;;5002478;28;20033;-56
2023/04/12 11:54:57;;;;;;;13.60;2.60;;;12.20;99.90;;;;;;5001782;28;20123;-58
2023/04/12 11:57:24;;;;;;;12.02;2.33;;;12.40;99.90;;;;;;4996991;28;20481;-58
2023/04/12 11:59:50;;;;;;;13.43;2.78;;;12.40;99.90;;;;;;4999986;28;20112;-56
2023/04/12 12:02:16;;;;;;;15.75;2.83;;;12.40;99.90;;;;;;5000235;28;20038;-57
2023/04/12 12:04:46;;;;;;;13.35;2.78;;;12.20;99.90;;;;;;5005574;28;20650;-57
2023/04/12 12:07:14;;;;;;;14.40;3.13;;;12.10;99.90;;;;;;5007988;28;20038;-58
2023/04/12 12:09:41;;;;;;;14.98;3.42;;;11.90;99.90;;;;;;5011568;28;20046;-55
2023/04/12 12:12:11;;;;;;;14.18;3.65;;;11.90;99.90;;;;;;5008229;28;20045;-54
2023/04/12 12:14:37;;;;;;;11.85;2.30;;;12.10;99.90;;;;;;4991409;28;20092;-57
2023/04/12 12:17:15;;;;;;;14.45;3.40;;;12.50;99.90;;;;;;5011617;28;20436;-56
2023/04/12 12:19:45;;;;;;;10.15;2.63;;;12.90;99.90;;;;;;5017780;28;20448;-56
2023/04/12 12:22:11;;;;;;;11.55;2.40;;;12.90;99.90;;;;;;4991288;28;20046;-55
2023/04/12 12:24:58;;;;;;;10.23;2.95;;;12.70;99.90;;;;;;4991359;28;20053;-56
2023/04/12 12:27:32;;;;;;;8.40;2.10;;;12.70;99.90;;;;;;5003637;28;20114;-59
2023/04/12 12:30:00;;;;;;;13.73;2.60;;;12.70;99.90;;;;;;5012295;28;20052;-54
2023/04/12 12:32:31;;;;;;;11.25;2.65;;;12.60;99.90;;;;;;4976967;28;20034;-55
2023/04/12 12:34:57;;;;;;;10.45;2.70;;;12.50;99.90;;;;;;4988429;28;20096;-57
2023/04/12 12:37:25;;;;;;;12.45;3.20;;;12.70;99.90;;;;;;5005239;28;20046;-57
2023/04/12 12:40:12;;;;;;;11.27;2.95;;;12.70;99.90;;;;;;5008618;28;20045;-60
2023/04/12 12:42:53;;;;;;;13.38;2.03;;;12.80;99.90;;;;;;5007455;28;20152;-57
2023/04/12 12:45:20;;;;;;;12.35;2.22;;;12.80;99.90;;;;;;4988654;28;20103;-58
2023/04/12 12:47:51;;;;;;;10.38;2.70;;;12.80;99.90;;;;;;5002658;28;20101;-61
2023/04/12 12:50:21;;;;;;;7.88;1.98;;;12.70;99.90;;;;;;4992751;28;20041;-57
2023/04/12 12:52:47;;;;;;;9.52;1.95;;;12.70;99.90;;;;;;5005626;28;20045;-57
2023/04/12 12:55:17;;;;;;;8.27;1.73;;;13.00;99.90;;;;;;5003981;28;20040;-57